Ulianopolis, Brazil
Current Conditions -  °F | °C
As of 6:00 AM on Friday 24 Oct 2014 (Local Time) from SBIZ Reporting Station
Haze Haze  
Wind Chill: 73°   Ceiling: 800
Heat Index: 73°   Visibility: 2.5mi
Dew Point: 72°   Wind: 0mph
Humidity: 94%   Direction: NA
Pressure: 29.85"   Gusts: NA
Location:  3.74°S, 47.49°W
Report Text: SBIZ 240900Z 00000KT 4000 BR SCT004 OVC008 23/22 Q1011
Loading
Personal Weather Stations






























Interactive Weather Map New forecast layout! Learn more

10-Day Weather Forecast

Advertisements
Track Severe Weather on mobile